Time;durP1;ratioP1;P1;durP2;ratioP2;P2;SDS_P1;SDS_P2;PMS_P1;PMS_P2;Temp;Humidity;BMP_temperature;BMP_pressure;BME280_temperature;BME280_humidity;BME280_pressure;Samples;Min_cycle;Max_cycle;Signal;HPM_P1;HPM_P2
2022/09/03 00:00:10;;;;;;;;;;;16.60;90.00;;;;;;5154472;27;19911;-68
2022/09/03 00:02:44;;;;;;;;;;;16.60;90.10;;;;;;5172842;27;20369;-68
2022/09/03 00:05:15;;;;;;;;;;;16.50;90.20;;;;;;5173020;27;19908;-68
2022/09/03 00:07:53;;;;;;;;;;;16.60;90.20;;;;;;5172832;27;20376;-68
2022/09/03 00:10:24;;;;;;;;;;;16.50;90.30;;;;;;5172809;27;19934;-68
2022/09/03 00:12:51;;;;;;;;;;;16.50;90.50;;;;;;5172648;27;19907;-69
2022/09/03 00:15:18;;;;;;;;;;;16.50;90.60;;;;;;5172853;27;19907;-68
2022/09/03 00:17:50;;;;;;;;;;;16.40;90.70;;;;;;5172579;27;19913;-68
2022/09/03 00:20:19;;;;;;;;;;;16.40;90.80;;;;;;5153889;27;19929;-71
2022/09/03 00:22:48;;;;;;;;;;;16.30;90.90;;;;;;5172220;27;19919;-68
2022/09/03 00:25:17;;;;;;;;;;;16.30;91.10;;;;;;5172461;27;20005;-68
2022/09/03 00:27:44;;;;;;;;;;;16.30;91.20;;;;;;5172366;27;19973;-68
2022/09/03 00:30:12;;;;;;;;;;;16.30;91.30;;;;;;5172279;27;20005;-69
2022/09/03 00:32:41;;;;;;;;;;;16.30;91.40;;;;;;5170218;27;19918;-68
2022/09/03 00:35:12;;;;;;;;;;;16.20;91.50;;;;;;5158525;27;19907;-68
2022/09/03 00:37:39;;;;;;;;;;;16.20;91.60;;;;;;5158335;27;19907;-68
2022/09/03 00:40:09;;;;;;;;;;;16.10;91.80;;;;;;5158442;27;19947;-68
2022/09/03 00:42:43;;;;;;;;;;;16.10;92.00;;;;;;5158375;27;20010;-68
2022/09/03 00:45:29;;;;;;;;;;;16.10;92.00;;;;;;5158362;27;19994;-68
2022/09/03 00:48:02;;;;;;;;;;;16.10;92.10;;;;;;5157918;27;19907;-68
2022/09/03 00:50:37;;;;;;;;;;;16.10;92.20;;;;;;5157992;27;19911;-69
2022/09/03 00:53:23;;;;;;;;;;;16.10;92.40;;;;;;5157944;27;19907;-68
2022/09/03 00:55:57;;;;;;;;;;;16.00;92.40;;;;;;5157700;27;19960;-68
2022/09/03 00:58:42;;;;;;;;;;;16.10;92.50;;;;;;5157847;27;19914;-69
2022/09/03 01:01:28;;;;;;;;;;;16.00;92.60;;;;;;5157677;27;19907;-68
2022/09/03 01:04:06;;;;;;;;;;;16.00;92.80;;;;;;5157546;27;19955;-68
2022/09/03 01:06:54;;;;;;;;;;;16.00;92.80;;;;;;5157960;27;19911;-69
2022/09/03 01:09:39;;;;;;;;;;;16.00;92.90;;;;;;5157610;27;19914;-68
2022/09/03 01:12:25;;;;;;;;;;;16.00;93.00;;;;;;5139038;27;19914;-68
2022/09/03 01:17:38;;;;;;;;;;;15.80;93.60;;;;;;5091311;27;20271;-68
2022/09/03 01:20:15;;;;;;;;;;;15.80;93.70;;;;;;5091416;28;19919;-68
2022/09/03 01:22:53;;;;;;;;;;;15.80;93.90;;;;;;5091394;28;19908;-67
2022/09/03 01:25:38;;;;;;;;;;;15.80;94.00;;;;;;5091074;28;19909;-67
2022/09/03 01:28:12;;;;;;;;;;;15.70;94.10;;;;;;5091039;28;20316;-68
2022/09/03 01:30:41;;;;;;;;;;;15.70;94.30;;;;;;5091275;28;19909;-67
2022/09/03 01:33:19;;;;;;;;;;;15.80;94.40;;;;;;5091218;28;19909;-67
2022/09/03 01:35:46;;;;;;;;;;;15.80;94.80;;;;;;5090545;28;19962;-68
2022/09/03 01:38:32;;;;;;;;;;;15.80;94.70;;;;;;5091027;28;19912;-67
2022/09/03 01:43:49;;;;;;;;;;;15.70;94.90;;;;;;5071049;28;19912;-68
2022/09/03 01:46:20;;;;;;;;;;;15.60;94.90;;;;;;5071204;28;20012;-68
2022/09/03 01:49:06;;;;;;;;;;;15.60;95.30;;;;;;5070894;28;19916;-68
2022/09/03 01:51:31;;;;;;;;;;;15.60;95.10;;;;;;5070795;28;19917;-68
2022/09/03 01:54:17;;;;;;;;;;;15.60;95.30;;;;;;5071063;28;19909;-68
2022/09/03 01:57:02;;;;;;;;;;;15.60;95.30;;;;;;5070814;28;20289;-67
2022/09/03 01:59:47;;;;;;;;;;;15.50;95.50;;;;;;5070647;28;19908;-68
2022/09/03 02:02:19;;;;;;;;;;;15.50;95.90;;;;;;5086248;28;19913;-68
2022/09/03 02:05:08;;;;;;;;;;;15.40;96.00;;;;;;5070852;28;19982;-68
2022/09/03 02:07:36;;;;;;;;;;;15.50;96.40;;;;;;5070555;28;19970;-68
2022/09/03 02:10:04;;;;;;;;;;;15.50;96.60;;;;;;5070439;28;19909;-68
2022/09/03 02:12:32;;;;;;;;;;;15.40;96.30;;;;;;5069178;28;19909;-68
2022/09/03 02:14:58;;;;;;;;;;;15.50;96.50;;;;;;5070660;28;19909;-68
2022/09/03 02:17:24;;;;;;;;;;;15.40;96.60;;;;;;5070623;28;19912;-68
2022/09/03 02:19:49;;;;;;;;;;;15.30;96.80;;;;;;5070509;28;19916;-68
2022/09/03 02:22:16;;;;;;;;;;;15.30;96.80;;;;;;5068876;28;20287;-68
2022/09/03 02:24:41;;;;;;;;;;;15.30;96.90;;;;;;5070218;28;19909;-68
2022/09/03 02:27:06;;;;;;;;;;;15.30;97.00;;;;;;5070383;28;19916;-68
2022/09/03 02:29:32;;;;;;;;;;;15.30;96.90;;;;;;5070311;28;19944;-68
2022/09/03 02:31:57;;;;;;;;;;;15.30;96.90;;;;;;5070045;28;20321;-68
2022/09/03 02:34:23;;;;;;;;;;;15.30;97.00;;;;;;5070016;28;19952;-68
2022/09/03 02:36:48;;;;;;;;;;;15.30;97.20;;;;;;5085711;28;19909;-68
2022/09/03 02:39:15;;;;;;;;;;;15.20;97.40;;;;;;5069840;28;19927;-67
2022/09/03 02:41:40;;;;;;;;;;;15.20;97.50;;;;;;5072986;28;19921;-68
2022/09/03 02:44:26;;;;;;;;;;;15.20;97.70;;;;;;5089976;28;19916;-68
2022/09/03 02:46:55;;;;;;;;;;;15.10;97.90;;;;;;5090245;28;19908;-68
2022/09/03 02:49:21;;;;;;;;;;;15.10;98.20;;;;;;5072156;28;20363;-68
2022/09/03 02:51:47;;;;;;;;;;;15.10;98.30;;;;;;5090169;28;19913;-67
2022/09/03 02:54:12;;;;;;;;;;;15.10;98.30;;;;;;5081471;28;20295;-68
2022/09/03 02:56:38;;;;;;;;;;;15.00;98.50;;;;;;5058458;28;20367;-67
2022/09/03 02:59:05;;;;;;;;;;;15.00;98.60;;;;;;5076513;28;19908;-68
2022/09/03 03:01:30;;;;;;;;;;;15.00;98.80;;;;;;5076416;28;20363;-68
2022/09/03 03:03:56;;;;;;;;;;;14.90;99.00;;;;;;5058293;28;19915;-68
2022/09/03 03:06:21;;;;;;;;;;;14.90;99.30;;;;;;5058579;28;19909;-68
2022/09/03 03:08:48;;;;;;;;;;;14.90;99.50;;;;;;5076396;28;19995;-68
2022/09/03 03:11:17;;;;;;;;;;;14.80;99.40;;;;;;5076456;28;19908;-67
2022/09/03 03:13:43;;;;;;;;;;;14.80;99.50;;;;;;5076609;28;20369;-68
2022/09/03 03:16:09;;;;;;;;;;;14.90;99.60;;;;;;5076518;28;20251;-67
2022/09/03 03:18:34;;;;;;;;;;;14.80;99.60;;;;;;5076025;28;20014;-68
2022/09/03 03:21:04;;;;;;;;;;;14.80;99.90;;;;;;5058074;28;19995;-68
2022/09/03 03:23:30;;;;;;;;;;;14.80;99.90;;;;;;5075966;28;20328;-68
2022/09/03 03:25:59;;;;;;;;;;;14.70;99.90;;;;;;5058164;28;19943;-68
2022/09/03 03:28:25;;;;;;;;;;;14.70;99.90;;;;;;5076036;28;19912;-68
2022/09/03 03:30:51;;;;;;;;;;;14.70;99.90;;;;;;5076495;28;19998;-68
2022/09/03 03:33:17;;;;;;;;;;;14.70;99.90;;;;;;5076284;28;19991;-68
2022/09/03 03:35:42;;;;;;;;;;;14.80;99.90;;;;;;5058363;28;19909;-68
2022/09/03 03:38:08;;;;;;;;;;;14.70;99.90;;;;;;5076285;28;19916;-68
2022/09/03 03:40:34;;;;;;;;;;;14.60;99.90;;;;;;5076085;28;19984;-68
2022/09/03 03:42:59;;;;;;;;;;;14.70;99.90;;;;;;5075298;28;19927;-68
2022/09/03 03:45:35;;;;;;;;;;;14.60;99.90;;;;;;5075740;28;19908;-67
2022/09/03 03:48:01;;;;;;;;;;;14.60;99.90;;;;;;5075326;28;19931;-68
2022/09/03 03:50:26;;;;;;;;;;;14.60;99.90;;;;;;5075583;28;19908;-68
2022/09/03 03:52:52;;;;;;;;;;;14.50;99.90;;;;;;5075245;28;19915;-68
2022/09/03 03:55:17;;;;;;;;;;;14.50;99.90;;;;;;5075473;28;19912;-68
2022/09/03 03:57:43;;;;;;;;;;;14.60;99.90;;;;;;5075180;28;19909;-68
2022/09/03 04:00:09;;;;;;;;;;;14.50;99.90;;;;;;5075126;28;19915;-68
2022/09/03 04:02:34;;;;;;;;;;;14.50;99.90;;;;;;5075303;28;19916;-68
2022/09/03 04:04:59;;;;;;;;;;;14.50;99.90;;;;;;5074270;28;19912;-68
2022/09/03 04:07:25;;;;;;;;;;;14.50;99.90;;;;;;5074729;28;19908;-67
2022/09/03 04:09:50;;;;;;;;;;;14.50;99.90;;;;;;5075228;28;19909;-68
2022/09/03 04:12:18;;;;;;;;;;;14.50;99.90;;;;;;5057135;28;20369;-68
2022/09/03 04:14:43;;;;;;;;;;;14.50;99.90;;;;;;5075089;28;19912;-67
2022/09/03 04:17:09;;;;;;;;;;;14.50;99.90;;;;;;5075012;28;20363;-67
2022/09/03 04:19:34;;;;;;;;;;;14.50;99.90;;;;;;5075041;28;20290;-68
2022/09/03 04:22:00;;;;;;;;;;;14.50;99.90;;;;;;5056723;28;19940;-68
2022/09/03 04:24:26;;;;;;;;;;;14.40;99.90;;;;;;5074920;28;19908;-68
2022/09/03 04:26:52;;;;;;;;;;;14.40;99.90;;;;;;5074904;28;19909;-67
2022/09/03 04:29:18;;;;;;;;;;;14.40;99.90;;;;;;5074776;28;20294;-68
2022/09/03 04:32:51;;;;;;;;;;;14.40;99.90;;;;;;5074553;28;19908;-68
2022/09/03 04:34:29;;;;;;;;;;;14.30;99.90;;;;;;5059311;28;20103;-68
2022/09/03 04:36:57;;;;;;;;;;;14.30;99.90;;;;;;5056449;28;20432;-68
2022/09/03 04:39:22;;;;;;;;;;;14.20;99.90;;;;;;5074593;28;19958;-67
2022/09/03 04:41:48;;;;;;;;;;;14.20;99.90;;;;;;5056077;28;19952;-67
2022/09/03 04:44:13;;;;;;;;;;;14.20;99.90;;;;;;5074267;28;19908;-68
2022/09/03 04:46:39;;;;;;;;;;;14.20;99.90;;;;;;5074546;28;19915;-68
2022/09/03 04:49:08;;;;;;;;;;;14.20;99.90;;;;;;5074147;28;20294;-68
2022/09/03 04:51:33;;;;;;;;;;;14.30;99.90;;;;;;5074362;28;20374;-68
2022/09/03 04:54:00;;;;;;;;;;;14.30;99.90;;;;;;5074341;28;19958;-67
2022/09/03 04:56:27;;;;;;;;;;;14.30;99.90;;;;;;5056113;28;20454;-68
2022/09/03 04:58:53;;;;;;;;;;;14.30;99.90;;;;;;5056208;28;20428;-67
2022/09/03 05:01:20;;;;;;;;;;;14.30;99.90;;;;;;5074019;28;19912;-68
2022/09/03 05:03:46;;;;;;;;;;;14.40;99.90;;;;;;5074212;28;19999;-67
2022/09/03 05:06:12;;;;;;;;;;;14.40;99.90;;;;;;5074239;28;19951;-67
2022/09/03 05:08:39;;;;;;;;;;;14.50;99.90;;;;;;5056405;28;19914;-68
2022/09/03 05:11:06;;;;;;;;;;;14.50;99.90;;;;;;5073911;28;20389;-68
2022/09/03 05:13:33;;;;;;;;;;;14.60;99.90;;;;;;5074157;28;19995;-68
2022/09/03 05:16:03;;;;;;;;;;;14.60;99.90;;;;;;5074046;28;19908;-68
2022/09/03 05:18:29;;;;;;;;;;;14.60;99.90;;;;;;5073646;28;19908;-68
2022/09/03 05:20:58;;;;;;;;;;;14.60;99.90;;;;;;5074033;28;19913;-67
2022/09/03 05:23:24;;;;;;;;;;;14.70;99.90;;;;;;5073957;28;19912;-68
2022/09/03 05:25:58;;;;;;;;;;;14.80;99.90;;;;;;5073925;28;20409;-68
2022/09/03 05:28:26;;;;;;;;;;;14.80;99.90;;;;;;5074069;28;19912;-67
2022/09/03 05:31:11;;;;;;;;;;;14.90;99.90;;;;;;5073754;28;19908;-67
2022/09/03 05:33:38;;;;;;;;;;;15.00;99.90;;;;;;5073604;28;19947;-68
2022/09/03 05:36:05;;;;;;;;;;;15.00;99.90;;;;;;5073609;28;19915;-68
2022/09/03 05:38:30;;;;;;;;;;;15.20;99.90;;;;;;5073961;28;19909;-67
2022/09/03 05:41:00;;;;;;;;;;;15.20;99.90;;;;;;5073855;28;19915;-67
2022/09/03 05:43:26;;;;;;;;;;;15.30;99.90;;;;;;5073441;28;19925;-68
2022/09/03 05:45:55;;;;;;;;;;;15.40;99.90;;;;;;5073870;28;19962;-68
2022/09/03 05:48:21;;;;;;;;;;;15.50;99.90;;;;;;5073637;28;19984;-67
2022/09/03 05:50:47;;;;;;;;;;;15.90;99.90;;;;;;5073482;28;19944;-67
2022/09/03 05:53:13;;;;;;;;;;;16.50;99.90;;;;;;5073425;28;20430;-68
2022/09/03 05:55:38;;;;;;;;;;;18.00;99.90;;;;;;5073470;28;20054;-68
2022/09/03 05:58:04;;;;;;;;;;;19.30;93.10;;;;;;5073335;28;20322;-68
2022/09/03 06:00:29;;;;;;;;;;;20.60;90.00;;;;;;5073313;28;19908;-68
2022/09/03 06:02:55;;;;;;;;;;;21.00;85.30;;;;;;5073494;28;19916;-69
2022/09/03 06:05:20;;;;;;;;;;;21.90;83.90;;;;;;5073334;28;19995;-68
2022/09/03 06:07:48;;;;;;;;;;;22.80;80.10;;;;;;5073529;28;19912;-69
2022/09/03 06:10:16;;;;;;;;;;;22.10;80.00;;;;;;5073510;28;19909;-69
2022/09/03 06:12:48;;;;;;;;;;;22.40;79.80;;;;;;5073486;28;20367;-68
2022/09/03 06:15:14;;;;;;;;;;;23.20;77.00;;;;;;5073448;28;19940;-66
2022/09/03 06:17:39;;;;;;;;;;;23.50;75.80;;;;;;5073261;28;20290;-67
2022/09/03 06:20:05;;;;;;;;;;;23.40;75.80;;;;;;5055501;28;19919;-67
2022/09/03 06:22:30;;;;;;;;;;;23.90;74.50;;;;;;5073346;28;20367;-69
2022/09/03 06:24:56;;;;;;;;;;;24.40;73.20;;;;;;5073067;28;19915;-68
2022/09/03 06:27:22;;;;;;;;;;;24.60;71.00;;;;;;5073059;28;19970;-68
2022/09/03 06:29:47;;;;;;;;;;;24.90;70.30;;;;;;5057780;28;19909;-68
2022/09/03 06:32:14;;;;;;;;;;;25.00;69.10;;;;;;5076812;28;20291;-67
2022/09/03 06:34:39;;;;;;;;;;;25.50;69.10;;;;;;5077038;28;19909;-67
2022/09/03 06:37:05;;;;;;;;;;;26.20;68.60;;;;;;5076669;28;20374;-68
2022/09/03 06:39:30;;;;;;;;;;;25.50;67.80;;;;;;5076627;28;19915;-69
2022/09/03 06:41:56;;;;;;;;;;;25.00;68.00;;;;;;5076561;28;19965;-67
2022/09/03 06:44:21;;;;;;;;;;;25.80;67.80;;;;;;5076820;28;19916;-68
2022/09/03 06:46:47;;;;;;;;;;;25.90;66.60;;;;;;5076446;28;20290;-68
2022/09/03 06:49:13;;;;;;;;;;;25.90;66.70;;;;;;5076759;28;19915;-67
2022/09/03 06:51:39;;;;;;;;;;;26.20;66.60;;;;;;5076428;28;19908;-68
2022/09/03 06:54:06;;;;;;;;;;;25.90;66.50;;;;;;5042008;28;19908;-68
2022/09/03 06:56:33;;;;;;;;;;;26.50;66.10;;;;;;5076616;28;19916;-69
2022/09/03 06:58:59;;;;;;;;;;;26.30;65.30;;;;;;5076273;28;19930;-68
2022/09/03 07:01:27;;;;;;;;;;;25.70;66.00;;;;;;5076550;28;19995;-68
2022/09/03 07:03:55;;;;;;;;;;;25.70;65.70;;;;;;5076534;28;20035;-68
2022/09/03 07:06:21;;;;;;;;;;;26.10;66.30;;;;;;5076238;28;20432;-70
2022/09/03 07:08:47;;;;;;;;;;;27.40;64.20;;;;;;5076114;28;19909;-68
2022/09/03 07:11:15;;;;;;;;;;;26.90;63.10;;;;;;5076059;28;19908;-68
2022/09/03 07:13:41;;;;;;;;;;;27.10;63.50;;;;;;5076326;28;20426;-68
2022/09/03 07:16:08;;;;;;;;;;;26.50;63.20;;;;;;5076050;28;20017;-67
2022/09/03 07:18:34;;;;;;;;;;;26.90;63.80;;;;;;5075952;28;19909;-67
2022/09/03 07:21:01;;;;;;;;;;;26.80;63.20;;;;;;5076163;28;19908;-67
2022/09/03 07:23:28;;;;;;;;;;;26.10;63.20;;;;;;5075751;28;19918;-67
2022/09/03 07:25:55;;;;;;;;;;;25.90;65.60;;;;;;5076061;28;19909;-69
2022/09/03 07:28:22;;;;;;;;;;;25.80;64.60;;;;;;5076026;28;19912;-68
2022/09/03 07:30:47;;;;;;;;;;;26.30;64.10;;;;;;5075688;28;19915;-68
2022/09/03 07:33:12;;;;;;;;;;;27.10;63.00;;;;;;5057928;28;20382;-68
2022/09/03 07:35:38;;;;;;;;;;;27.50;63.00;;;;;;5075904;28;19931;-68
2022/09/03 07:38:03;;;;;;;;;;;27.10;62.00;;;;;;5075851;28;20000;-69
2022/09/03 07:40:29;;;;;;;;;;;27.80;61.20;;;;;;5075674;28;20347;-68
2022/09/03 07:43:03;;;;;;;;;;;27.70;61.10;;;;;;5075269;28;19947;-68
2022/09/03 07:45:28;;;;;;;;;;;27.90;60.80;;;;;;5075656;28;19909;-69
2022/09/03 07:47:54;;;;;;;;;;;28.20;60.30;;;;;;5057465;28;19915;-68
2022/09/03 07:50:19;;;;;;;;;;;28.80;61.00;;;;;;5075578;28;19995;-68
2022/09/03 07:52:46;;;;;;;;;;;28.10;59.70;;;;;;5057511;28;19913;-68
2022/09/03 07:55:12;;;;;;;;;;;27.80;59.90;;;;;;5075509;28;19916;-68
2022/09/03 07:57:38;;;;;;;;;;;28.10;60.40;;;;;;5075480;28;19915;-69
2022/09/03 08:00:05;;;;;;;;;;;27.00;62.10;;;;;;5075105;28;20371;-68
2022/09/03 08:02:31;;;;;;;;;;;26.80;63.90;;;;;;5075076;28;19912;-69
2022/09/03 08:04:56;;;;;;;;;;;28.00;62.60;;;;;;5057175;28;19967;-68
2022/09/03 08:07:22;;;;;;;;;;;28.40;62.00;;;;;;5075020;28;19958;-67
2022/09/03 08:09:47;;;;;;;;;;;28.30;63.40;;;;;;5074941;28;19958;-68
2022/09/03 08:12:13;;;;;;;;;;;27.80;64.30;;;;;;5074931;28;19912;-68
2022/09/03 08:14:38;;;;;;;;;;;27.70;65.60;;;;;;5075098;28;19909;-64
2022/09/03 08:17:03;;;;;;;;;;;27.30;66.90;;;;;;5074792;28;19916;-62
2022/09/03 08:19:29;;;;;;;;;;;28.10;65.70;;;;;;5075042;28;20308;-62
2022/09/03 08:21:54;;;;;;;;;;;27.90;69.40;;;;;;5074513;28;19939;-62
2022/09/03 08:24:23;;;;;;;;;;;28.30;69.70;;;;;;5074913;28;19908;-62
2022/09/03 08:26:49;;;;;;;;;;;28.50;72.80;;;;;;5074884;28;20403;-63
2022/09/03 08:29:14;;;;;;;;;;;28.60;71.60;;;;;;5074810;28;19944;-62
2022/09/03 08:31:40;;;;;;;;;;;28.40;75.70;;;;;;5074736;28;19916;-63
2022/09/03 08:34:06;;;;;;;;;;;28.60;79.10;;;;;;5074457;28;19916;-61
2022/09/03 08:36:33;;;;;;;;;;;29.20;78.50;;;;;;5056467;28;20267;-62
2022/09/03 08:39:02;;;;;;;;;;;29.10;76.40;;;;;;5074367;28;19909;-62
2022/09/03 08:41:49;;;;;;;;;;;28.40;72.40;;;;;;5074060;28;19908;-62
2022/09/03 08:44:34;;;;;;;;;;;28.20;72.80;;;;;;5074381;28;19962;-63
2022/09/03 08:47:05;;;;;;;;;;;28.30;71.50;;;;;;5074076;28;19908;-63
2022/09/03 08:49:35;;;;;;;;;;;28.60;70.80;;;;;;5074143;28;19916;-63
2022/09/03 08:52:03;;;;;;;;;;;28.40;64.80;;;;;;5073863;28;20401;-62
2022/09/03 08:54:29;;;;;;;;;;;27.70;65.40;;;;;;5074313;28;19935;-63
2022/09/03 08:56:57;;;;;;;;;;;27.80;64.10;;;;;;5074179;28;19913;-63
2022/09/03 08:59:23;;;;;;;;;;;27.80;64.90;;;;;;5074254;28;20378;-63
2022/09/03 09:02:00;;;;;;;;;;;27.50;66.90;;;;;;5073908;28;19947;-62
2022/09/03 09:04:45;;;;;;;;;;;26.50;67.70;;;;;;5056077;28;20271;-62
2022/09/03 09:07:17;;;;;;;;;;;26.50;68.00;;;;;;5073871;28;19909;-63
2022/09/03 09:09:54;;;;;;;;;;;26.50;67.90;;;;;;5074158;28;19908;-63
2022/09/03 09:15:21;;;;;;;;;;;25.80;69.10;;;;;;5071091;28;19935;-63
2022/09/03 09:18:04;;;;;;;;;;;25.60;68.60;;;;;;5070936;28;19920;-63
2022/09/03 09:20:50;;;;;;;;;;;25.90;69.70;;;;;;5071075;28;19948;-63
2022/09/03 09:23:24;;;;;;;;;;;26.00;69.40;;;;;;5070762;28;20007;-63
2022/09/03 09:25:49;;;;;;;;;;;26.80;68.30;;;;;;5070984;28;20042;-63
2022/09/03 09:28:17;;;;;;;;;;;27.70;67.80;;;;;;5070950;28;19917;-63
2022/09/03 09:30:44;;;;;;;;;;;28.60;65.60;;;;;;5070959;28;20355;-64
2022/09/03 09:33:10;;;;;;;;;;;28.30;60.80;;;;;;5069271;28;19916;-63
2022/09/03 09:35:35;;;;;;;;;;;28.80;59.90;;;;;;5070819;28;19908;-63
2022/09/03 09:38:01;;;;;;;;;;;28.30;59.90;;;;;;5070810;28;19936;-63
2022/09/03 09:40:31;;;;;;;;;;;27.80;61.10;;;;;;5070785;28;19958;-63
2022/09/03 09:43:14;;;;;;;;;;;27.90;61.50;;;;;;5070735;28;19915;-63
2022/09/03 09:45:44;;;;;;;;;;;28.20;61.40;;;;;;5070621;28;19916;-63
2022/09/03 09:48:16;;;;;;;;;;;28.40;60.10;;;;;;5070265;28;19908;-64
2022/09/03 09:50:42;;;;;;;;;;;28.20;60.70;;;;;;5069011;28;20322;-64
2022/09/03 09:53:13;;;;;;;;;;;28.80;59.70;;;;;;5070381;28;19912;-63
2022/09/03 09:55:55;;;;;;;;;;;28.60;59.90;;;;;;5070409;28;20424;-63
2022/09/03 09:58:22;;;;;;;;;;;29.40;59.00;;;;;;5070359;28;19909;-63
2022/09/03 10:00:56;;;;;;;;;;;29.60;58.80;;;;;;5070269;28;20359;-64
2022/09/03 10:03:21;;;;;;;;;;;30.10;58.20;;;;;;5070257;28;19959;-63
2022/09/03 10:05:57;;;;;;;;;;;29.80;57.90;;;;;;5069916;28;20314;-64
2022/09/03 10:08:23;;;;;;;;;;;30.30;58.70;;;;;;5068693;28;20329;-63
2022/09/03 10:10:49;;;;;;;;;;;30.10;56.90;;;;;;5070100;28;19912;-63
2022/09/03 10:13:20;;;;;;;;;;;29.80;57.40;;;;;;5075471;28;19927;-64
2022/09/03 10:15:49;;;;;;;;;;;29.60;58.50;;;;;;5090223;28;19908;-64
2022/09/03 10:18:27;;;;;;;;;;;29.80;58.00;;;;;;5090202;28;19915;-63
2022/09/03 10:21:03;;;;;;;;;;;29.00;58.30;;;;;;5090207;28;20414;-63
2022/09/03 10:23:31;;;;;;;;;;;28.20;59.80;;;;;;5090156;28;19909;-63
2022/09/03 10:26:06;;;;;;;;;;;27.80;60.70;;;;;;5078584;28;20370;-62
2022/09/03 10:28:33;;;;;;;;;;;27.30;61.70;;;;;;5076565;28;19908;-61
2022/09/03 10:31:05;;;;;;;;;;;27.40;62.30;;;;;;5076478;28;19908;-62
2022/09/03 10:33:41;;;;;;;;;;;27.70;62.70;;;;;;5076114;28;19919;-62
2022/09/03 10:36:12;;;;;;;;;;;28.10;60.70;;;;;;5076423;28;19915;-62
2022/09/03 10:38:38;;;;;;;;;;;28.30;60.60;;;;;;5058121;28;20007;-62
2022/09/03 10:41:24;;;;;;;;;;;28.60;60.60;;;;;;5076354;28;19920;-62
2022/09/03 10:44:10;;;;;;;;;;;29.40;60.40;;;;;;5076022;28;19948;-63
2022/09/03 10:46:43;;;;;;;;;;;29.10;59.40;;;;;;5075857;28;19908;-62
2022/09/03 10:49:16;;;;;;;;;;;28.60;59.50;;;;;;5075901;28;19934;-63
2022/09/03 10:51:45;;;;;;;;;;;28.40;59.60;;;;;;5076238;28;20371;-63
2022/09/03 10:54:31;;;;;;;;;;;28.50;60.50;;;;;;5076069;28;19919;-62
2022/09/03 10:57:16;;;;;;;;;;;28.80;61.00;;;;;;5075752;28;19915;-62
2022/09/03 11:00:06;;;;;;;;;;;28.50;60.70;;;;;;5075733;28;19927;-62
2022/09/03 11:02:52;;;;;;;;;;;28.40;60.50;;;;;;5075600;28;20370;-62
2022/09/03 11:05:37;;;;;;;;;;;28.40;61.50;;;;;;5075501;28;19908;-62
2022/09/03 11:08:22;;;;;;;;;;;27.70;62.60;;;;;;5075580;28;19912;-62
2022/09/03 11:10:51;;;;;;;;;;;27.70;62.20;;;;;;5075785;28;20378;-62
2022/09/03 11:13:23;;;;;;;;;;;27.80;62.40;;;;;;5075382;28;20276;-62
2022/09/03 11:15:53;;;;;;;;;;;27.90;62.00;;;;;;5075669;28;19912;-61
2022/09/03 11:18:23;;;;;;;;;;;27.90;62.30;;;;;;5075340;28;20375;-62
2022/09/03 11:20:49;;;;;;;;;;;27.80;61.90;;;;;;5075547;28;19919;-62
2022/09/03 11:23:16;;;;;;;;;;;28.10;61.80;;;;;;5075516;28;19915;-62
2022/09/03 11:25:45;;;;;;;;;;;28.10;61.60;;;;;;5075446;28;19909;-62
2022/09/03 11:28:17;;;;;;;;;;;28.40;61.00;;;;;;5075410;28;20432;-61
2022/09/03 11:30:49;;;;;;;;;;;28.30;61.50;;;;;;5075309;28;19963;-62
2022/09/03 11:33:18;;;;;;;;;;;28.50;59.70;;;;;;5074980;28;19920;-62
2022/09/03 11:35:44;;;;;;;;;;;27.90;61.10;;;;;;5057059;28;19908;-63
2022/09/03 11:43:35;;;;;;;;;;;27.40;62.10;;;;;;5071109;28;19913;-63
2022/09/03 11:46:11;;;;;;;;;;;27.70;62.50;;;;;;5069605;28;19919;-62
2022/09/03 11:48:42;;;;;;;;;;;27.30;62.40;;;;;;5071036;28;19909;-63
2022/09/03 11:51:29;;;;;;;;;;;27.30;62.80;;;;;;5071018;28;19958;-63
2022/09/03 11:53:57;;;;;;;;;;;27.30;62.90;;;;;;5070669;28;19934;-62
2022/09/03 11:56:22;;;;;;;;;;;27.40;63.40;;;;;;5071026;28;20291;-63
2022/09/03 11:59:08;;;;;;;;;;;28.00;62.40;;;;;;5070658;28;19909;-63
2022/09/03 12:01:35;;;;;;;;;;;28.40;61.10;;;;;;5070520;28;19960;-63
2022/09/03 12:04:03;;;;;;;;;;;28.60;60.10;;;;;;5070848;28;20406;-63
2022/09/03 12:06:35;;;;;;;;;;;28.20;61.00;;;;;;5070491;28;19913;-62
2022/09/03 12:09:09;;;;;;;;;;;28.20;60.40;;;;;;5070499;28;20398;-63
2022/09/03 12:11:42;;;;;;;;;;;28.60;61.10;;;;;;5070420;28;19916;-63
2022/09/03 12:14:12;;;;;;;;;;;28.90;60.50;;;;;;5070273;28;19943;-63
2022/09/03 12:16:44;;;;;;;;;;;28.90;60.90;;;;;;5070558;28;19916;-63
2022/09/03 12:19:15;;;;;;;;;;;28.80;60.30;;;;;;5070240;28;19913;-63
2022/09/03 12:21:40;;;;;;;;;;;28.90;60.30;;;;;;5070147;28;19913;-62
2022/09/03 12:24:10;;;;;;;;;;;28.70;60.50;;;;;;5070345;28;20003;-62
2022/09/03 12:26:38;;;;;;;;;;;28.80;60.80;;;;;;5085886;28;20007;-63
2022/09/03 12:29:05;;;;;;;;;;;28.50;61.00;;;;;;5070323;28;19909;-63
2022/09/03 12:31:33;;;;;;;;;;;28.40;61.60;;;;;;5069977;28;19916;-63
2022/09/03 12:34:00;;;;;;;;;;;28.00;62.30;;;;;;5069941;28;20015;-63
2022/09/03 12:36:35;;;;;;;;;;;27.80;62.80;;;;;;5070178;28;19912;-63
2022/09/03 12:39:23;;;;;;;;;;;27.70;63.40;;;;;;5085798;28;19944;-63
2022/09/03 12:42:08;;;;;;;;;;;27.50;63.80;;;;;;5075328;28;20279;-64
2022/09/03 12:44:36;;;;;;;;;;;27.40;64.60;;;;;;5089885;28;20382;-63
2022/09/03 12:47:04;;;;;;;;;;;27.20;65.30;;;;;;5089993;28;19915;-63
2022/09/03 12:49:33;;;;;;;;;;;27.30;66.00;;;;;;5071829;28;19958;-63
2022/09/03 12:52:01;;;;;;;;;;;27.00;66.40;;;;;;5071835;28;19908;-63
2022/09/03 12:54:27;;;;;;;;;;;27.30;66.90;;;;;;5079168;28;19919;-63
2022/09/03 12:56:56;;;;;;;;;;;27.50;66.40;;;;;;5076388;28;19908;-64
2022/09/03 12:59:22;;;;;;;;;;;27.40;66.60;;;;;;5076261;28;19908;-64
2022/09/03 13:01:50;;;;;;;;;;;27.80;66.80;;;;;;5076095;28;19970;-65
2022/09/03 13:04:18;;;;;;;;;;;28.10;66.10;;;;;;5076212;28;19916;-64
2022/09/03 13:07:03;;;;;;;;;;;27.60;66.00;;;;;;5076162;28;19915;-64
2022/09/03 13:09:32;;;;;;;;;;;27.10;67.20;;;;;;5076018;28;19958;-63
2022/09/03 13:12:00;;;;;;;;;;;26.80;67.80;;;;;;5058412;28;20389;-63
2022/09/03 13:14:26;;;;;;;;;;;26.70;68.70;;;;;;5058847;28;19909;-62
2022/09/03 13:22:21;;;;;;;;;;;26.60;69.60;;;;;;5091418;27;19913;-63
2022/09/03 13:25:07;;;;;;;;;;;26.50;69.90;;;;;;5091344;28;19920;-63
2022/09/03 13:27:38;;;;;;;;;;;26.50;69.80;;;;;;5091099;28;19912;-63
2022/09/03 13:30:06;;;;;;;;;;;26.30;70.60;;;;;;5091128;28;20375;-64
2022/09/03 13:32:39;;;;;;;;;;;26.30;69.60;;;;;;5124147;28;20329;-63
2022/09/03 13:35:08;;;;;;;;;;;26.30;69.50;;;;;;5089724;28;19908;-63
2022/09/03 13:37:53;;;;;;;;;;;26.50;69.70;;;;;;5090896;28;20071;-63
2022/09/03 13:40:28;;;;;;;;;;;26.70;68.80;;;;;;5118482;28;19920;-63
2022/09/03 13:42:57;;;;;;;;;;;26.70;69.20;;;;;;5091111;28;19909;-64
2022/09/03 13:45:34;;;;;;;;;;;26.60;69.60;;;;;;5091058;28;19908;-63
2022/09/03 13:51:02;;;;;;;;;;;26.70;69.50;;;;;;5090452;28;20302;-63
2022/09/03 13:53:47;;;;;;;;;;;26.30;69.60;;;;;;5090636;28;20058;-63
2022/09/03 13:56:18;;;;;;;;;;;26.20;70.40;;;;;;5090593;28;20303;-64
2022/09/03 13:58:47;;;;;;;;;;;26.50;69.70;;;;;;5090544;28;19908;-63
2022/09/03 14:01:24;;;;;;;;;;;27.00;68.90;;;;;;5090485;28;19920;-63
2022/09/03 14:03:56;;;;;;;;;;;27.00;68.80;;;;;;5090634;28;20003;-63
2022/09/03 14:06:41;;;;;;;;;;;27.00;69.00;;;;;;5090602;28;19995;-63
2022/09/03 14:09:13;;;;;;;;;;;26.90;69.00;;;;;;5090264;28;19908;-63
2022/09/03 14:11:59;;;;;;;;;;;27.00;69.40;;;;;;5090495;28;19909;-63
2022/09/03 14:14:44;;;;;;;;;;;27.60;68.50;;;;;;5090366;28;19948;-63
2022/09/03 14:17:25;;;;;;;;;;;27.70;67.90;;;;;;5090057;28;19909;-63
2022/09/03 14:19:54;;;;;;;;;;;27.80;66.70;;;;;;5090695;28;20367;-64
2022/09/03 14:22:24;;;;;;;;;;;27.70;67.60;;;;;;5110192;28;19916;-63
2022/09/03 14:24:52;;;;;;;;;;;27.50;68.40;;;;;;5110375;28;19981;-63
2022/09/03 14:27:34;;;;;;;;;;;27.50;68.20;;;;;;5110604;28;20344;-64
2022/09/03 14:30:20;;;;;;;;;;;27.40;68.50;;;;;;5110513;28;19915;-63
2022/09/03 14:33:05;;;;;;;;;;;27.40;67.90;;;;;;5101260;28;19947;-63
2022/09/03 14:35:34;;;;;;;;;;;27.30;68.80;;;;;;5096449;28;19908;-64
2022/09/03 14:38:11;;;;;;;;;;;27.30;69.20;;;;;;5096803;28;20427;-63
2022/09/03 14:40:56;;;;;;;;;;;27.40;67.80;;;;;;5096674;28;19915;-64
2022/09/03 14:43:42;;;;;;;;;;;27.50;68.20;;;;;;5096293;28;19948;-64
2022/09/03 14:46:27;;;;;;;;;;;27.80;68.30;;;;;;5096240;28;20400;-63
2022/09/03 14:49:00;;;;;;;;;;;27.70;67.90;;;;;;5078057;28;19931;-63
2022/09/03 14:51:40;;;;;;;;;;;27.20;69.50;;;;;;5096531;28;19964;-63
2022/09/03 14:54:15;;;;;;;;;;;26.80;70.20;;;;;;5096518;28;19935;-63
2022/09/03 14:56:45;;;;;;;;;;;26.60;71.50;;;;;;5096163;28;20358;-64